Camden, AL (36726)

9:53 AM CST on January 26, 2015 (GMT -0600)
Pine Hill, AL 36769 | Change Station
CLOSE
Current Station
Personal Weather Station
Location: Pine Hill, AL
Elevation: 210 ft
Nearby Weather Stations

Elev 210 ft 31.99 °N, 87.64 °W | Updated 5 seconds ago

Overcast
Overcast
46.8 °F
Feels Like 44 °F
N
6.0
Wind Variable Wind from South
Gusts 10.7 mph

Today
High -- | Low -- °F
--% Chance of Precip.
Yesterday
High -- | Low -- °F
Precip. -- in
6:46 AM 5:17 PM
Waxing Crescent, 44% visible
Pressure 29.98 in
Visibility 10.0 miles
Clouds Overcast 2600 ft
Windchill 44 °F
Dew Point 35 °F
Humidity 64%
Rainfall 0.00 in
Snow Depth Not available.
UV 1 out of 12
Pollen 3.80 out of 12
Air Quality Not available.
Flu Activity Not available.
METAR KPRN 261456Z AUTO 30011G21KT 10SM OVC026 08/02 A2998 RMK AO2 SLP152 T00830017 51017

More Conditions Fewer Conditions

Pressure 29.98 in
Visibility 10.0 miles
Clouds Overcast 2600 ft
Windchill 44 °F
Dew Point 35 °F
Humidity 64%
Rainfall 0.00 in
Snow Depth Not available.
UV 1 out of 12
Pollen 3.80 out of 12
Air Quality Not available.
Flu Activity Not available.
METAR KPRN 261456Z AUTO 30011G21KT 10SM OVC026 08/02 A2998 RMK AO2 SLP152 T00830017 51017

More Conditions Fewer Conditions

10-Day Weather Forecast

Almanac

Astronomy

Jan. 26, 2015 Rise Set
Actual Time
Civil Twilight
Nautical Twilight
Astronomical Twilight
Moon
Length of Visible Light
Length of Day
Tomorrow will be .
, % of the Moon is Illuminated

Today's Extremes

State Highs State Lows

Community

WunderPhotos

Upload Photos

1,790,249 photos uploaded!

WunderBlogs® & News

Nearby

Air Quality

  Air Quality AQ Index Pollutant
Not available.

Snow Depth

Station Depth Elevation

Earthquake Activity

City Distance Mag. Time & Date
Minimum magnitude displayed is 2.5.

Coastal Water Temperatures

Place Temperature

Nearby Weather Stations